createdAt,value
2018-09-21T00:00:59.771Z,10.10
2018-09-21T00:03:03.288Z,9.93
2018-09-21T00:05:06.896Z,9.97
2018-09-21T00:07:10.364Z,10.00
2018-09-21T00:09:14.163Z,10.67
2018-09-21T00:11:18.191Z,10.33
2018-09-21T00:13:21.698Z,10.60
2018-09-21T00:15:25.217Z,10.30
2018-09-21T00:17:28.827Z,10.20
2018-09-21T00:19:32.331Z,10.90
2018-09-21T00:21:35.913Z,11.17
2018-09-21T00:23:39.764Z,10.57
2018-09-21T00:25:43.251Z,9.80
2018-09-21T00:27:46.776Z,10.40
2018-09-21T00:29:50.252Z,9.90
2018-09-21T00:31:53.819Z,11.03
2018-09-21T00:33:57.304Z,9.77
2018-09-21T00:36:00.781Z,9.57
2018-09-21T00:38:04.316Z,9.90
2018-09-21T00:40:07.844Z,10.47
2018-09-21T00:42:11.368Z,10.87
2018-09-21T00:44:14.869Z,10.73
2018-09-21T00:46:18.419Z,10.40
2018-09-21T00:48:21.933Z,10.40
2018-09-21T00:50:25.429Z,9.33
2018-09-21T00:52:28.986Z,10.67
2018-09-21T00:54:32.496Z,10.63
2018-09-21T00:56:36.016Z,9.57
2018-09-21T00:58:39.490Z,10.33
2018-09-21T01:00:42.996Z,10.27
2018-09-21T01:02:46.563Z,9.70
2018-09-21T01:04:50.080Z,9.87
2018-09-21T01:06:53.596Z,9.80
2018-09-21T01:08:57.157Z,10.13
2018-09-21T01:11:00.655Z,10.07
2018-09-21T01:13:04.203Z,10.23
2018-09-21T01:15:07.788Z,9.57
2018-09-21T01:17:11.293Z,10.60
2018-09-21T01:19:14.763Z,10.27
2018-09-21T01:21:18.219Z,12.30
2018-09-21T01:23:21.741Z,11.27
2018-09-21T01:25:25.323Z,10.60
2018-09-21T01:27:28.868Z,12.07
2018-09-21T01:29:32.369Z,10.63
2018-09-21T01:31:35.927Z,11.73
2018-09-21T01:33:39.420Z,11.10
2018-09-21T01:35:42.962Z,12.53
2018-09-21T01:37:46.845Z,11.70
2018-09-21T01:39:50.305Z,12.50
2018-09-21T01:41:53.836Z,11.83
2018-09-21T01:43:57.316Z,10.83
2018-09-21T01:46:00.772Z,11.37
2018-09-21T01:48:04.320Z,10.60
2018-09-21T01:50:07.782Z,10.77
2018-09-21T01:52:11.312Z,10.40
2018-09-21T01:54:14.808Z,10.77
2018-09-21T01:56:18.330Z,11.77
2018-09-21T01:58:21.825Z,11.40
2018-09-21T02:00:25.364Z,11.50
2018-09-21T02:02:28.916Z,11.40
2018-09-21T02:04:39.045Z,11.70
2018-09-21T02:06:42.544Z,9.97
2018-09-21T02:08:46.115Z,11.47
2018-09-21T02:10:49.636Z,10.60
2018-09-21T02:12:53.172Z,10.57
2018-09-21T02:14:56.680Z,10.83
2018-09-21T02:17:00.231Z,10.83
2018-09-21T02:19:03.740Z,10.47
2018-09-21T02:21:07.566Z,10.90
2018-09-21T02:23:11.378Z,10.73
2018-09-21T02:25:14.947Z,11.10
2018-09-21T02:27:18.495Z,10.90
2018-09-21T02:29:21.955Z,11.03
2018-09-21T02:31:25.438Z,11.40
2018-09-21T02:33:28.957Z,10.80
2018-09-21T02:35:32.445Z,11.47
2018-09-21T02:37:35.983Z,10.27
2018-09-21T02:39:39.488Z,10.17
2018-09-21T02:41:43.000Z,10.97
2018-09-21T02:43:46.610Z,10.33
2018-09-21T02:45:50.144Z,11.13
2018-09-21T02:47:53.646Z,9.57
2018-09-21T02:49:57.148Z,10.27
2018-09-21T02:52:00.632Z,10.13
2018-09-21T02:54:04.163Z,10.70
2018-09-21T02:56:14.078Z,10.80
2018-09-21T02:58:17.635Z,11.47
2018-09-21T03:00:21.164Z,10.40
2018-09-21T03:02:24.871Z,11.37
2018-09-21T03:04:28.745Z,10.73
2018-09-21T03:06:32.254Z,11.37
2018-09-21T03:08:35.786Z,10.50
2018-09-21T03:10:39.462Z,10.67
2018-09-21T03:12:42.959Z,10.93
2018-09-21T03:14:46.515Z,11.20
2018-09-21T03:16:49.994Z,10.50
2018-09-21T03:18:53.496Z,11.27
2018-09-21T03:20:57.009Z,10.87
2018-09-21T03:23:00.540Z,10.90
2018-09-21T03:25:04.099Z,11.37
2018-09-21T03:27:07.612Z,11.00
2018-09-21T03:29:11.132Z,11.03
2018-09-21T03:31:14.643Z,10.43
2018-09-21T03:33:18.186Z,10.70
2018-09-21T03:35:21.751Z,10.73
2018-09-21T03:37:25.385Z,10.23
2018-09-21T03:39:28.977Z,10.67
2018-09-21T03:41:32.472Z,11.80
2018-09-21T03:43:35.993Z,10.43
2018-09-21T03:45:39.963Z,10.50
2018-09-21T03:47:44.080Z,9.60
2018-09-21T03:49:47.601Z,10.10
2018-09-21T03:51:51.113Z,9.83
2018-09-21T03:53:54.688Z,10.73
2018-09-21T03:55:58.187Z,10.03
2018-09-21T03:58:01.660Z,10.13
2018-09-21T04:00:05.891Z,11.00
2018-09-21T04:02:09.475Z,10.43
2018-09-21T04:04:13.025Z,10.17
2018-09-21T04:06:16.871Z,10.10
2018-09-21T04:08:20.408Z,10.30
2018-09-21T04:10:23.895Z,10.03
2018-09-21T04:12:27.460Z,8.83
2018-09-21T04:14:31.008Z,8.93
2018-09-21T04:16:34.482Z,10.23
2018-09-21T04:18:38.022Z,7.63
2018-09-21T04:20:41.494Z,7.80
2018-09-21T04:22:54.283Z,8.07
2018-09-21T04:24:58.219Z,7.80
2018-09-21T04:27:01.700Z,7.03
2018-09-21T04:29:05.234Z,6.80
2018-09-21T04:31:08.736Z,6.60
2018-09-21T04:33:12.306Z,6.87
2018-09-21T04:35:15.770Z,6.03
2018-09-21T04:37:19.302Z,6.87
2018-09-21T04:39:22.857Z,6.37
2018-09-21T04:41:26.546Z,6.67
2018-09-21T04:43:30.389Z,6.60
2018-09-21T04:45:36.224Z,7.37
2018-09-21T04:47:40.044Z,5.73
2018-09-21T04:49:44.136Z,6.57
2018-09-21T04:51:47.650Z,6.03
2018-09-21T04:53:51.220Z,6.03
2018-09-21T04:55:54.708Z,5.77
2018-09-21T04:57:58.275Z,6.27
2018-09-21T05:00:01.887Z,5.80
2018-09-21T05:02:05.488Z,6.27
2018-09-21T05:04:13.367Z,5.87
2018-09-21T05:06:16.967Z,6.00
2018-09-21T05:08:20.524Z,5.30
2018-09-21T05:10:24.060Z,5.73
2018-09-21T05:12:27.622Z,6.00
2018-09-21T05:14:31.411Z,5.30
2018-09-21T05:16:35.474Z,6.30
2018-09-21T05:18:39.339Z,6.95
2018-09-21T05:20:43.486Z,5.77
2018-09-21T05:22:47.290Z,5.50
2018-09-21T05:24:51.888Z,6.40
2018-09-21T05:26:56.005Z,6.17
2018-09-21T05:28:59.619Z,5.80
2018-09-21T05:31:03.356Z,7.10
2018-09-21T05:33:07.124Z,5.73
2018-09-21T05:35:10.830Z,5.90
2018-09-21T05:37:14.593Z,6.07
2018-09-21T05:39:18.270Z,6.07
2018-09-21T05:41:21.867Z,5.20
2018-09-21T05:43:25.416Z,5.17
2018-09-21T05:45:29.031Z,5.53
2018-09-21T05:47:33.580Z,5.03
2018-09-21T05:49:37.225Z,5.60
2018-09-21T05:51:40.864Z,5.50
2018-09-21T05:53:45.242Z,5.50
2018-09-21T05:55:49.457Z,4.67
2018-09-21T05:57:52.984Z,5.10
2018-09-21T05:59:57.576Z,5.10
2018-09-21T06:02:01.472Z,5.00
2018-09-21T06:04:05.272Z,5.00
2018-09-21T06:06:10.510Z,5.10
2018-09-21T06:08:14.220Z,5.00
2018-09-21T06:10:18.221Z,5.20
2018-09-21T06:12:25.051Z,5.20
2018-09-21T06:14:45.082Z,5.13
2018-09-21T06:16:49.078Z,5.60
2018-09-21T06:18:53.490Z,5.30
2018-09-21T06:20:57.784Z,4.80
2018-09-21T06:23:02.391Z,4.90
2018-09-21T06:25:07.909Z,5.30
2018-09-21T06:27:11.955Z,4.73
2018-09-21T06:29:15.643Z,4.67
2018-09-21T06:31:19.279Z,5.17
2018-09-21T06:33:23.574Z,4.97
2018-09-21T06:35:27.529Z,4.77
2018-09-21T06:37:31.331Z,5.67
2018-09-21T06:39:35.542Z,4.97
2018-09-21T06:41:39.719Z,4.73
2018-09-21T06:43:44.290Z,5.37
2018-09-21T06:45:47.980Z,5.47
2018-09-21T06:47:57.716Z,5.20
2018-09-21T06:50:04.234Z,4.80
2018-09-21T06:52:09.575Z,4.93
2018-09-21T06:54:14.435Z,5.27
2018-09-21T06:56:18.394Z,5.27
2018-09-21T06:58:22.285Z,5.13
2018-09-21T07:02:57.513Z,5.23
2018-09-21T07:05:06.578Z,5.47
2018-09-21T07:07:10.639Z,4.93
2018-09-21T07:09:15.164Z,5.25
2018-09-21T07:11:18.974Z,5.40
2018-09-21T07:13:23.125Z,5.63
2018-09-21T07:15:28.871Z,5.27
2018-09-21T07:17:32.461Z,4.93
2018-09-21T07:19:45.157Z,5.27
2018-09-21T07:21:49.027Z,5.70
2018-09-21T07:23:54.416Z,5.60
2018-09-21T07:25:58.754Z,5.53
2018-09-21T07:28:02.347Z,5.07
2018-09-21T07:30:06.154Z,5.60
2018-09-21T07:32:09.692Z,5.23
2018-09-21T07:34:13.339Z,5.73
2018-09-21T07:36:17.435Z,7.43
2018-09-21T07:38:21.085Z,6.83
2018-09-21T07:40:26.722Z,6.20
2018-09-21T07:42:30.719Z,5.63
2018-09-21T07:44:35.316Z,6.03
2018-09-21T07:49:02.076Z,5.23
2018-09-21T07:51:06.756Z,5.60
2018-09-21T07:53:16.114Z,6.53
2018-09-21T07:57:55.539Z,5.33
2018-09-21T08:00:21.108Z,6.30
2018-09-21T08:02:37.409Z,6.13
2018-09-21T08:05:01.135Z,5.67
2018-09-21T08:07:10.309Z,6.10
2018-09-21T08:09:15.427Z,6.47
2018-09-21T08:11:20.475Z,5.67
2018-09-21T08:13:24.748Z,6.17
2018-09-21T08:15:30.426Z,5.50
2018-09-21T08:17:34.135Z,6.47
2018-09-21T08:19:38.772Z,5.63
2018-09-21T08:21:46.030Z,5.30
2018-09-21T08:23:51.849Z,6.00
2018-09-21T08:25:57.872Z,5.97
2018-09-21T08:28:04.035Z,5.73
2018-09-21T08:30:08.007Z,5.40
2018-09-21T08:32:12.482Z,5.93
2018-09-21T08:34:16.910Z,5.33
2018-09-21T08:36:20.988Z,6.10
2018-09-21T08:38:27.444Z,5.83
2018-09-21T08:40:32.501Z,5.50
2018-09-21T08:42:36.554Z,5.70
2018-09-21T08:44:41.443Z,5.90
2018-09-21T08:46:45.356Z,5.30
2018-09-21T08:48:48.915Z,5.83
2018-09-21T08:50:52.734Z,6.47
2018-09-21T08:53:02.972Z,5.83
2018-09-21T08:55:09.092Z,6.33
2018-09-21T08:57:12.800Z,6.77
2018-09-21T08:59:16.488Z,6.00
2018-09-21T09:01:20.590Z,6.97
2018-09-21T09:03:24.478Z,5.92
2018-09-21T09:05:28.406Z,6.33
2018-09-21T09:07:33.222Z,6.43
2018-09-21T09:09:37.321Z,6.63
2018-09-21T09:11:41.788Z,6.47
2018-09-21T09:13:45.941Z,6.00
2018-09-21T09:15:51.109Z,6.23
2018-09-21T09:17:54.825Z,6.03
2018-09-21T09:19:58.456Z,6.77
2018-09-21T09:22:02.225Z,5.87
2018-09-21T09:24:06.131Z,6.10
2018-09-21T09:26:10.089Z,5.00
2018-09-21T09:28:13.790Z,5.50
2018-09-21T09:30:17.516Z,5.70
2018-09-21T09:32:21.120Z,6.10
2018-09-21T09:34:25.923Z,5.70
2018-09-21T09:36:29.490Z,5.77
2018-09-21T09:38:33.382Z,5.10
2018-09-21T09:40:37.327Z,5.33
2018-09-21T09:42:42.085Z,5.03
2018-09-21T09:44:48.904Z,4.87
2018-09-21T09:46:57.411Z,5.10
2018-09-21T09:49:04.094Z,4.97
2018-09-21T09:51:08.214Z,4.70
2018-09-21T09:53:11.782Z,4.60
2018-09-21T09:55:15.336Z,4.60
2018-09-21T09:57:19.000Z,4.40
2018-09-21T09:59:22.682Z,4.47
2018-09-21T10:01:26.452Z,3.90
2018-09-21T10:03:32.641Z,5.07
2018-09-21T10:05:41.291Z,4.50
2018-09-21T10:07:44.975Z,4.40
2018-09-21T10:09:48.589Z,4.53
2018-09-21T10:11:54.394Z,4.10
2018-09-21T10:13:58.099Z,4.30
2018-09-21T10:16:01.885Z,4.60
2018-09-21T10:18:06.621Z,3.70
2018-09-21T10:20:10.236Z,4.50
2018-09-21T10:22:14.018Z,4.50
2018-09-21T10:24:17.661Z,4.60
2018-09-21T10:26:21.562Z,4.73
2018-09-21T10:28:27.686Z,4.67
2018-09-21T10:30:31.623Z,4.70
2018-09-21T10:32:37.656Z,4.67
2018-09-21T10:34:58.487Z,4.40
2018-09-21T10:37:14.804Z,4.30
2018-09-21T10:39:23.181Z,4.80
2018-09-21T10:41:27.238Z,5.03
2018-09-21T10:43:31.041Z,4.17
2018-09-21T10:45:37.954Z,4.50
2018-09-21T10:47:44.367Z,4.87
2018-09-21T10:49:50.690Z,4.07
2018-09-21T10:51:55.391Z,4.33
2018-09-21T10:54:02.306Z,4.23
2018-09-21T10:56:07.174Z,4.37
2018-09-21T10:58:10.806Z,3.90
2018-09-21T11:00:14.939Z,3.90
2018-09-21T11:02:22.216Z,3.80
2018-09-21T11:04:28.183Z,4.00
2018-09-21T11:06:31.805Z,3.50
2018-09-21T11:08:35.676Z,3.20
2018-09-21T11:10:39.345Z,3.63
2018-09-21T11:12:42.958Z,3.63
2018-09-21T11:14:46.579Z,3.13
2018-09-21T11:16:50.151Z,3.03
2018-09-21T11:18:53.851Z,3.00
2018-09-21T11:20:57.394Z,2.93
2018-09-21T11:23:01.437Z,2.47
2018-09-21T11:25:05.759Z,2.90
2018-09-21T11:27:09.477Z,2.50
2018-09-21T11:29:13.118Z,2.37
2018-09-21T11:31:17.443Z,2.10
2018-09-21T11:33:20.993Z,3.03
2018-09-21T11:35:24.684Z,2.60
2018-09-21T11:37:28.340Z,2.33
2018-09-21T11:39:33.423Z,2.33
2018-09-21T11:41:37.149Z,2.63
2018-09-21T11:43:40.752Z,2.40
2018-09-21T11:45:44.379Z,3.13
2018-09-21T11:47:47.994Z,2.60
2018-09-21T11:49:52.011Z,2.53
2018-09-21T11:51:56.475Z,2.90
2018-09-21T11:54:01.535Z,2.47
2018-09-21T11:56:05.130Z,2.50
2018-09-21T11:58:08.829Z,2.37
2018-09-21T12:00:12.430Z,2.43
2018-09-21T12:02:16.121Z,2.70
2018-09-21T12:04:19.922Z,2.60
2018-09-21T12:06:23.483Z,2.53
2018-09-21T12:08:27.137Z,2.87
2018-09-21T12:10:30.798Z,2.80
2018-09-21T12:12:36.330Z,2.70
2018-09-21T12:14:40.051Z,2.73
2018-09-21T12:16:43.782Z,2.80
2018-09-21T12:18:47.919Z,2.90
2018-09-21T12:20:51.539Z,2.70
2018-09-21T12:22:55.262Z,2.70
2018-09-21T12:24:59.445Z,3.30
2018-09-21T12:27:03.273Z,3.20
2018-09-21T12:29:06.907Z,2.60
2018-09-21T12:31:10.829Z,2.73
2018-09-21T12:33:14.452Z,3.17
2018-09-21T12:35:18.038Z,2.90
2018-09-21T12:37:21.881Z,2.70
2018-09-21T12:39:26.022Z,2.60
2018-09-21T12:41:29.545Z,2.83
2018-09-21T12:43:33.491Z,2.33
2018-09-21T12:45:37.066Z,2.97
2018-09-21T12:47:41.273Z,2.83
2018-09-21T12:49:45.843Z,2.90
2018-09-21T12:51:49.481Z,2.67
2018-09-21T12:53:53.563Z,2.70
2018-09-21T12:55:57.124Z,2.83
2018-09-21T12:58:00.735Z,2.60
2018-09-21T13:00:04.668Z,3.03
2018-09-21T13:02:08.341Z,2.93
2018-09-21T13:04:11.865Z,3.23
2018-09-21T13:06:15.551Z,2.93
2018-09-21T13:08:19.239Z,1.20
2018-09-21T13:10:23.166Z,0.93
2018-09-21T13:12:26.784Z,1.00
2018-09-21T13:14:30.713Z,0.60
2018-09-21T13:16:34.368Z,0.90
2018-09-21T13:18:37.946Z,0.70
2018-09-21T13:20:41.589Z,0.70
2018-09-21T13:22:45.248Z,0.90
2018-09-21T13:24:49.076Z,0.97
2018-09-21T13:26:53.428Z,0.60
2018-09-21T13:28:57.793Z,0.90
2018-09-21T13:31:01.356Z,0.83
2018-09-21T13:33:05.269Z,0.70
2018-09-21T13:35:09.216Z,1.10
2018-09-21T13:37:13.329Z,0.90
2018-09-21T13:39:16.873Z,0.90
2018-09-21T13:41:20.544Z,1.03
2018-09-21T13:43:24.083Z,1.30
2018-09-21T13:45:27.582Z,1.03
2018-09-21T13:47:31.161Z,0.87
2018-09-21T13:49:34.671Z,1.00
2018-09-21T13:51:38.204Z,1.47
2018-09-21T13:53:41.700Z,1.63
2018-09-21T13:55:45.189Z,1.90
2018-09-21T13:57:48.725Z,1.67
2018-09-21T13:59:52.284Z,1.37
2018-09-21T14:01:56.230Z,1.40
2018-09-21T14:03:59.816Z,1.50
2018-09-21T14:06:05.131Z,1.33
2018-09-21T14:08:08.645Z,1.83
2018-09-21T14:10:12.647Z,1.63
2018-09-21T14:12:16.152Z,2.00
2018-09-21T14:14:19.712Z,1.60
2018-09-21T14:16:23.210Z,1.97
2018-09-21T14:18:27.179Z,1.63
2018-09-21T14:20:30.716Z,1.57
2018-09-21T14:22:34.291Z,1.87
2018-09-21T14:24:37.793Z,1.90
2018-09-21T14:26:41.365Z,2.07
2018-09-21T14:28:44.958Z,1.97
2018-09-21T14:30:48.633Z,1.90
2018-09-21T14:32:52.735Z,1.90
2018-09-21T14:34:56.402Z,1.70
2018-09-21T14:36:59.968Z,2.50
2018-09-21T14:39:04.873Z,2.60
2018-09-21T14:41:08.560Z,2.20
2018-09-21T14:43:12.165Z,2.40
2018-09-21T14:45:15.836Z,2.43
2018-09-21T14:47:19.335Z,2.30
2018-09-21T14:49:22.867Z,2.40
2018-09-21T14:51:26.436Z,2.57
2018-09-21T14:53:30.024Z,1.90
2018-09-21T14:55:33.512Z,2.70
2018-09-21T14:57:37.052Z,2.30
2018-09-21T14:59:40.628Z,2.80
2018-09-21T15:01:44.146Z,2.07
2018-09-21T15:03:47.709Z,2.40
2018-09-21T15:05:51.226Z,2.87
2018-09-21T15:07:54.735Z,2.40
2018-09-21T15:09:58.252Z,2.97
2018-09-21T15:12:01.792Z,3.00
2018-09-21T15:14:05.411Z,2.40
2018-09-21T15:16:09.011Z,3.20
2018-09-21T15:18:12.584Z,3.40
2018-09-21T15:20:16.105Z,2.87
2018-09-21T15:22:19.750Z,2.83
2018-09-21T15:24:23.396Z,2.87
2018-09-21T15:26:26.930Z,2.47
2018-09-21T15:28:30.470Z,2.90
2018-09-21T15:30:34.004Z,3.27
2018-09-21T15:32:37.777Z,3.33
2018-09-21T15:34:41.322Z,2.80
2018-09-21T15:36:44.840Z,3.67
2018-09-21T15:38:48.367Z,3.70
2018-09-21T15:40:51.892Z,3.20
2018-09-21T15:42:55.437Z,3.60
2018-09-21T15:44:59.119Z,3.30
2018-09-21T15:47:02.619Z,3.43
2018-09-21T15:49:06.606Z,3.43
2018-09-21T15:51:10.140Z,3.73
2018-09-21T15:53:13.681Z,3.73
2018-09-21T15:55:17.197Z,4.20
2018-09-21T15:57:20.745Z,3.43
2018-09-21T15:59:24.343Z,3.30
2018-09-21T16:01:27.951Z,4.00
2018-09-21T16:03:31.538Z,4.07
2018-09-21T16:05:35.022Z,3.80
2018-09-21T16:07:38.544Z,4.00
2018-09-21T16:09:42.077Z,3.80
2018-09-21T16:11:45.606Z,4.23
2018-09-21T16:13:49.170Z,4.50
2018-09-21T16:15:52.681Z,4.27
2018-09-21T16:17:56.200Z,4.77
2018-09-21T16:19:59.743Z,4.73
2018-09-21T16:22:03.297Z,5.33
2018-09-21T16:24:06.868Z,5.37
2018-09-21T16:26:11.025Z,5.10
2018-09-21T16:28:14.636Z,4.70
2018-09-21T16:30:18.173Z,5.07
2018-09-21T16:32:21.717Z,4.83
2018-09-21T16:34:25.236Z,5.00
2018-09-21T16:36:28.845Z,5.27
2018-09-21T16:38:32.508Z,4.60
2018-09-21T16:40:36.111Z,5.00
2018-09-21T16:42:39.608Z,5.33
2018-09-21T16:44:43.227Z,5.07
2018-09-21T16:46:46.872Z,4.80
2018-09-21T16:48:50.402Z,4.57
2018-09-21T16:50:53.950Z,4.30
2018-09-21T16:52:58.307Z,4.63
2018-09-21T16:55:01.898Z,4.23
2018-09-21T16:57:05.608Z,4.27
2018-09-21T16:59:09.697Z,4.10
2018-09-21T17:01:13.264Z,3.53
2018-09-21T17:03:16.806Z,3.80
2018-09-21T17:05:20.607Z,4.27
2018-09-21T17:07:24.121Z,3.80
2018-09-21T17:09:27.651Z,3.70
2018-09-21T17:11:31.175Z,2.93
2018-09-21T17:13:34.700Z,2.87
2018-09-21T17:15:38.241Z,3.10
2018-09-21T17:17:41.766Z,3.57
2018-09-21T17:19:45.293Z,2.67
2018-09-21T17:21:48.866Z,2.60
2018-09-21T17:23:52.932Z,3.00
2018-09-21T17:25:56.492Z,2.90
2018-09-21T17:28:00.034Z,3.00
2018-09-21T17:30:03.666Z,2.93
2018-09-21T17:32:07.224Z,2.37
2018-09-21T17:34:10.995Z,2.27
2018-09-21T17:36:14.510Z,2.43
2018-09-21T17:38:18.114Z,1.90
2018-09-21T17:40:21.755Z,2.20
2018-09-21T17:42:25.248Z,1.97
2018-09-21T17:44:28.771Z,2.13
2018-09-21T17:46:32.243Z,2.53
2018-09-21T17:48:35.753Z,1.97
2018-09-21T17:50:39.279Z,2.00
2018-09-21T17:52:42.838Z,1.80
2018-09-21T17:54:46.765Z,1.97
2018-09-21T17:56:50.252Z,1.90
2018-09-21T17:58:53.761Z,1.70
2018-09-21T18:00:57.296Z,1.60
2018-09-21T18:03:01.112Z,1.50
2018-09-21T18:05:05.071Z,1.63
2018-09-21T18:07:08.998Z,1.57
2018-09-21T18:09:12.563Z,1.63
2018-09-21T18:11:16.045Z,1.37
2018-09-21T18:13:19.560Z,1.90
2018-09-21T18:15:23.140Z,1.60
2018-09-21T18:17:26.660Z,1.97
2018-09-21T18:19:30.217Z,1.80
2018-09-21T18:21:33.671Z,1.77
2018-09-21T18:23:37.171Z,1.53
2018-09-21T18:25:40.755Z,1.40
2018-09-21T18:27:44.420Z,1.30
2018-09-21T18:29:47.921Z,1.50
2018-09-21T18:31:51.421Z,1.63
2018-09-21T18:33:54.920Z,1.83
2018-09-21T18:35:58.441Z,1.97
2018-09-21T18:38:01.949Z,1.60
2018-09-21T18:40:05.542Z,1.50
2018-09-21T18:42:09.071Z,1.50
2018-09-21T18:44:12.562Z,2.00
2018-09-21T18:46:16.104Z,2.20
2018-09-21T18:48:19.601Z,1.87
2018-09-21T18:50:23.201Z,2.20
2018-09-21T18:52:26.852Z,1.70
2018-09-21T18:54:30.343Z,2.00
2018-09-21T18:56:33.851Z,1.80
2018-09-21T18:58:37.320Z,2.30
2018-09-21T19:00:40.880Z,1.80
2018-09-21T19:02:44.388Z,1.83
2018-09-21T19:04:47.896Z,2.00
2018-09-21T19:06:51.397Z,1.60
2018-09-21T19:08:54.916Z,1.83
2018-09-21T19:10:59.204Z,1.50
2018-09-21T19:13:02.685Z,1.37
2018-09-21T19:15:06.265Z,1.50
2018-09-21T19:17:09.764Z,2.13
2018-09-21T19:19:13.252Z,1.80
2018-09-21T19:21:16.751Z,1.77
2018-09-21T19:23:20.318Z,1.70
2018-09-21T19:25:23.881Z,1.63
2018-09-21T19:27:27.397Z,2.10
2018-09-21T19:29:30.919Z,1.63
2018-09-21T19:31:34.420Z,1.77
2018-09-21T19:33:37.911Z,1.70
2018-09-21T19:35:41.446Z,1.67
2018-09-21T19:37:44.953Z,1.67
2018-09-21T19:39:48.496Z,1.40
2018-09-21T19:41:52.001Z,1.70
2018-09-21T19:43:55.546Z,1.40
2018-09-21T19:45:59.129Z,1.60
2018-09-21T19:48:02.625Z,1.83
2018-09-21T19:50:06.847Z,1.60
2018-09-21T19:52:10.342Z,1.60
2018-09-21T19:54:13.863Z,1.43
2018-09-21T19:56:17.407Z,2.33
2018-09-21T19:58:20.958Z,1.40
2018-09-21T20:00:24.538Z,1.63
2018-09-21T20:02:28.048Z,1.40
2018-09-21T20:04:31.557Z,1.63
2018-09-21T20:06:35.090Z,1.93
2018-09-21T20:08:38.549Z,1.43
2018-09-21T20:10:42.069Z,1.93
2018-09-21T20:12:45.565Z,1.80
2018-09-21T20:14:49.065Z,2.00
2018-09-21T20:16:52.583Z,1.70
2018-09-21T20:18:56.109Z,1.53
2018-09-21T20:20:59.651Z,1.83
2018-09-21T20:23:03.152Z,1.60
2018-09-21T20:25:06.726Z,1.83
2018-09-21T20:27:10.465Z,1.60
2018-09-21T20:29:13.999Z,1.50
2018-09-21T20:31:22.744Z,1.40
2018-09-21T20:33:27.477Z,1.90
2018-09-21T20:35:31.061Z,1.87
2018-09-21T20:37:34.724Z,1.33
2018-09-21T20:39:38.239Z,1.50
2018-09-21T20:41:41.803Z,1.33
2018-09-21T20:43:45.327Z,1.30
2018-09-21T20:45:48.829Z,1.33
2018-09-21T20:47:52.344Z,1.53
2018-09-21T20:49:55.843Z,1.50
2018-09-21T20:51:59.417Z,1.57
2018-09-21T20:54:03.154Z,1.43
2018-09-21T20:56:06.672Z,1.17
2018-09-21T20:58:10.589Z,1.40
2018-09-21T21:00:14.180Z,1.50
2018-09-21T21:02:17.704Z,1.10
2018-09-21T21:04:21.239Z,1.30
2018-09-21T21:06:24.797Z,1.30
2018-09-21T21:08:28.306Z,1.10
2018-09-21T21:10:31.825Z,1.13
2018-09-21T21:12:35.357Z,1.43
2018-09-21T21:14:38.916Z,1.17
2018-09-21T21:16:42.421Z,1.00
2018-09-21T21:18:45.903Z,1.60
2018-09-21T21:20:49.413Z,1.67
2018-09-21T21:22:52.900Z,1.60
2018-09-21T21:24:56.398Z,1.43
2018-09-21T21:26:59.961Z,1.20
2018-09-21T21:29:03.514Z,1.40
2018-09-21T21:31:07.045Z,2.13
2018-09-21T21:33:10.839Z,1.40
2018-09-21T21:35:14.356Z,1.30
2018-09-21T21:37:18.287Z,1.70
2018-09-21T21:39:22.187Z,1.77
2018-09-21T21:41:25.736Z,1.50
2018-09-21T21:43:29.294Z,1.60
2018-09-21T21:45:32.847Z,1.17
2018-09-21T21:47:36.376Z,1.70
2018-09-21T21:49:40.267Z,1.70
2018-09-21T21:51:43.792Z,1.40
2018-09-21T21:53:47.328Z,1.47
2018-09-21T21:55:50.843Z,1.50
2018-09-21T21:57:54.420Z,1.30
2018-09-21T21:59:58.008Z,1.30
2018-09-21T22:02:01.562Z,1.40
2018-09-21T22:04:05.076Z,1.30
2018-09-21T22:06:08.592Z,1.60
2018-09-21T22:08:12.102Z,2.00
2018-09-21T22:10:15.646Z,1.40
2018-09-21T22:12:24.885Z,1.57
2018-09-21T22:14:28.756Z,1.37
2018-09-21T22:16:32.280Z,1.60
2018-09-21T22:18:35.816Z,1.43
2018-09-21T22:20:39.323Z,1.53
2018-09-21T22:22:42.872Z,1.50
2018-09-21T22:24:46.369Z,1.73
2018-09-21T22:26:49.908Z,1.63
2018-09-21T22:28:53.441Z,1.80
2018-09-21T22:30:56.945Z,1.97
2018-09-21T22:33:00.487Z,1.60
2018-09-21T22:35:04.012Z,1.80
2018-09-21T22:37:07.582Z,1.63
2018-09-21T22:39:11.108Z,1.80
2018-09-21T22:41:14.597Z,1.20
2018-09-21T22:43:18.122Z,1.57
2018-09-21T22:45:21.686Z,0.90
2018-09-21T22:47:25.346Z,1.27
2018-09-21T22:49:28.895Z,1.33
2018-09-21T22:51:32.402Z,2.13
2018-09-21T22:53:35.963Z,1.53
2018-09-21T22:55:39.476Z,1.60
2018-09-21T22:57:42.977Z,1.47
2018-09-21T22:59:46.472Z,1.40
2018-09-21T23:01:50.342Z,1.57
2018-09-21T23:03:53.900Z,1.50
2018-09-21T23:05:57.430Z,1.70
2018-09-21T23:08:01.296Z,1.40
2018-09-21T23:10:04.865Z,1.40
2018-09-21T23:12:08.388Z,1.57
2018-09-21T23:14:12.299Z,1.80
2018-09-21T23:16:15.854Z,1.80
2018-09-21T23:18:19.534Z,1.93
2018-09-21T23:20:23.058Z,1.60
2018-09-21T23:22:26.575Z,2.10
2018-09-21T23:24:30.158Z,1.60
2018-09-21T23:26:33.664Z,1.17
2018-09-21T23:28:37.203Z,1.47
2018-09-21T23:30:41.065Z,1.30
2018-09-21T23:32:44.580Z,1.17
2018-09-21T23:34:48.080Z,1.60
2018-09-21T23:36:51.620Z,1.30
2018-09-21T23:38:55.163Z,1.10
2018-09-21T23:40:58.684Z,0.97
2018-09-21T23:43:02.215Z,1.53
2018-09-21T23:45:05.926Z,1.50
2018-09-21T23:47:09.447Z,1.37
2018-09-21T23:49:13.048Z,2.13
2018-09-21T23:51:16.602Z,1.23
2018-09-21T23:53:20.787Z,1.40
2018-09-21T23:55:24.311Z,1.10
2018-09-21T23:57:27.820Z,1.50
2018-09-21T23:59:31.383Z,1.13
